sensor_id;sensor_type;location;lat;lon;timestamp;P1;durP1;ratioP1;P2;durP2;ratioP2
22034;SDS011;11181;51.002;4.356;2024-01-27T00:01:44;15.07;;;3.73;;
22034;SDS011;11181;51.002;4.356;2024-01-27T00:04:11;9.07;;;4.00;;
22034;SDS011;11181;51.002;4.356;2024-01-27T00:06:38;6.33;;;3.37;;
22034;SDS011;11181;51.002;4.356;2024-01-27T00:09:06;8.07;;;3.30;;
22034;SDS011;11181;51.002;4.356;2024-01-27T00:11:33;9.67;;;3.60;;
22034;SDS011;11181;51.002;4.356;2024-01-27T00:14:00;9.60;;;3.47;;
22034;SDS011;11181;51.002;4.356;2024-01-27T00:16:28;8.40;;;3.60;;
22034;SDS011;11181;51.002;4.356;2024-01-27T00:18:55;6.73;;;3.20;;
22034;SDS011;11181;51.002;4.356;2024-01-27T00:21:21;11.97;;;3.23;;
22034;SDS011;11181;51.002;4.356;2024-01-27T00:23:48;8.30;;;3.57;;
22034;SDS011;11181;51.002;4.356;2024-01-27T00:26:16;8.73;;;4.27;;
22034;SDS011;11181;51.002;4.356;2024-01-27T00:28:43;15.17;;;5.30;;
22034;SDS011;11181;51.002;4.356;2024-01-27T00:31:10;11.47;;;4.20;;
22034;SDS011;11181;51.002;4.356;2024-01-27T00:33:37;13.30;;;4.67;;
22034;SDS011;11181;51.002;4.356;2024-01-27T00:36:04;11.87;;;5.27;;
22034;SDS011;11181;51.002;4.356;2024-01-27T00:38:31;10.33;;;4.83;;
22034;SDS011;11181;51.002;4.356;2024-01-27T00:40:58;9.27;;;3.90;;
22034;SDS011;11181;51.002;4.356;2024-01-27T00:43:26;9.63;;;4.13;;
22034;SDS011;11181;51.002;4.356;2024-01-27T00:45:53;10.17;;;3.73;;
22034;SDS011;11181;51.002;4.356;2024-01-27T00:48:20;7.83;;;3.73;;
22034;SDS011;11181;51.002;4.356;2024-01-27T00:50:47;13.87;;;3.60;;
22034;SDS011;11181;51.002;4.356;2024-01-27T00:53:14;8.77;;;4.27;;
22034;SDS011;11181;51.002;4.356;2024-01-27T00:55:41;5.33;;;2.60;;
22034;SDS011;11181;51.002;4.356;2024-01-27T00:58:08;11.97;;;3.47;;
22034;SDS011;11181;51.002;4.356;2024-01-27T01:00:36;18.07;;;4.97;;
22034;SDS011;11181;51.002;4.356;2024-01-27T01:03:03;9.80;;;3.63;;
22034;SDS011;11181;51.002;4.356;2024-01-27T01:05:30;6.60;;;3.17;;
22034;SDS011;11181;51.002;4.356;2024-01-27T01:07:57;9.67;;;3.50;;
22034;SDS011;11181;51.002;4.356;2024-01-27T01:10:24;8.47;;;3.60;;
22034;SDS011;11181;51.002;4.356;2024-01-27T01:12:51;11.27;;;4.17;;
22034;SDS011;11181;51.002;4.356;2024-01-27T01:15:18;8.17;;;4.27;;
22034;SDS011;11181;51.002;4.356;2024-01-27T01:17:46;10.03;;;3.60;;
22034;SDS011;11181;51.002;4.356;2024-01-27T01:20:13;8.67;;;3.60;;
22034;SDS011;11181;51.002;4.356;2024-01-27T01:22:40;10.60;;;4.00;;
22034;SDS011;11181;51.002;4.356;2024-01-27T01:25:07;8.50;;;3.43;;
22034;SDS011;11181;51.002;4.356;2024-01-27T01:27:34;7.63;;;3.77;;
22034;SDS011;11181;51.002;4.356;2024-01-27T01:30:01;13.00;;;4.47;;
22034;SDS011;11181;51.002;4.356;2024-01-27T01:32:28;11.43;;;4.23;;
22034;SDS011;11181;51.002;4.356;2024-01-27T01:34:56;8.07;;;3.43;;
22034;SDS011;11181;51.002;4.356;2024-01-27T01:37:23;11.90;;;3.80;;
22034;SDS011;11181;51.002;4.356;2024-01-27T01:39:50;5.57;;;3.60;;
22034;SDS011;11181;51.002;4.356;2024-01-27T01:42:17;11.10;;;3.97;;
22034;SDS011;11181;51.002;4.356;2024-01-27T01:44:45;8.37;;;3.40;;
22034;SDS011;11181;51.002;4.356;2024-01-27T01:47:12;11.83;;;4.77;;
22034;SDS011;11181;51.002;4.356;2024-01-27T01:49:39;9.23;;;3.77;;
22034;SDS011;11181;51.002;4.356;2024-01-27T01:52:07;11.43;;;3.80;;
22034;SDS011;11181;51.002;4.356;2024-01-27T01:54:35;9.43;;;3.63;;
22034;SDS011;11181;51.002;4.356;2024-01-27T01:57:02;8.40;;;2.90;;
22034;SDS011;11181;51.002;4.356;2024-01-27T01:59:30;13.37;;;4.20;;
22034;SDS011;11181;51.002;4.356;2024-01-27T02:01:57;8.20;;;3.70;;
22034;SDS011;11181;51.002;4.356;2024-01-27T02:04:24;12.23;;;4.10;;
22034;SDS011;11181;51.002;4.356;2024-01-27T02:06:50;10.17;;;3.97;;
22034;SDS011;11181;51.002;4.356;2024-01-27T02:09:19;11.33;;;3.03;;
22034;SDS011;11181;51.002;4.356;2024-01-27T02:11:45;8.53;;;4.00;;
22034;SDS011;11181;51.002;4.356;2024-01-27T02:14:12;11.80;;;4.30;;
22034;SDS011;11181;51.002;4.356;2024-01-27T02:16:39;9.57;;;3.73;;
22034;SDS011;11181;51.002;4.356;2024-01-27T02:19:06;7.73;;;3.37;;
22034;SDS011;11181;51.002;4.356;2024-01-27T02:21:33;10.77;;;4.27;;
22034;SDS011;11181;51.002;4.356;2024-01-27T02:24:00;13.07;;;4.60;;
22034;SDS011;11181;51.002;4.356;2024-01-27T02:26:28;7.77;;;3.80;;
22034;SDS011;11181;51.002;4.356;2024-01-27T02:28:55;11.30;;;3.67;;
22034;SDS011;11181;51.002;4.356;2024-01-27T02:31:22;12.37;;;3.80;;
22034;SDS011;11181;51.002;4.356;2024-01-27T02:33:49;6.17;;;3.07;;
22034;SDS011;11181;51.002;4.356;2024-01-27T02:36:16;10.00;;;4.20;;
22034;SDS011;11181;51.002;4.356;2024-01-27T02:38:43;10.57;;;4.90;;
22034;SDS011;11181;51.002;4.356;2024-01-27T02:41:10;9.23;;;3.97;;
22034;SDS011;11181;51.002;4.356;2024-01-27T02:43:38;15.73;;;5.13;;
22034;SDS011;11181;51.002;4.356;2024-01-27T02:46:06;13.13;;;4.43;;
22034;SDS011;11181;51.002;4.356;2024-01-27T02:48:35;10.60;;;3.70;;
22034;SDS011;11181;51.002;4.356;2024-01-27T02:51:02;8.63;;;4.13;;
22034;SDS011;11181;51.002;4.356;2024-01-27T02:53:29;11.27;;;4.07;;
22034;SDS011;11181;51.002;4.356;2024-01-27T02:55:56;11.77;;;5.30;;
22034;SDS011;11181;51.002;4.356;2024-01-27T02:58:23;12.80;;;4.77;;
22034;SDS011;11181;51.002;4.356;2024-01-27T03:00:51;8.57;;;4.53;;
22034;SDS011;11181;51.002;4.356;2024-01-27T03:03:18;11.13;;;5.03;;
22034;SDS011;11181;51.002;4.356;2024-01-27T03:05:48;7.47;;;4.10;;
22034;SDS011;11181;51.002;4.356;2024-01-27T03:08:14;9.73;;;4.73;;
22034;SDS011;11181;51.002;4.356;2024-01-27T03:10:41;11.03;;;4.57;;
22034;SDS011;11181;51.002;4.356;2024-01-27T03:13:08;10.90;;;4.97;;
22034;SDS011;11181;51.002;4.356;2024-01-27T03:15:35;13.70;;;5.73;;
22034;SDS011;11181;51.002;4.356;2024-01-27T03:18:04;18.70;;;5.90;;
22034;SDS011;11181;51.002;4.356;2024-01-27T03:20:31;12.07;;;5.00;;
22034;SDS011;11181;51.002;4.356;2024-01-27T03:22:58;11.47;;;4.83;;
22034;SDS011;11181;51.002;4.356;2024-01-27T03:25:25;11.17;;;5.70;;
22034;SDS011;11181;51.002;4.356;2024-01-27T03:27:51;9.27;;;4.73;;
22034;SDS011;11181;51.002;4.356;2024-01-27T03:30:18;9.50;;;5.37;;
22034;SDS011;11181;51.002;4.356;2024-01-27T03:32:45;9.33;;;4.93;;
22034;SDS011;11181;51.002;4.356;2024-01-27T03:35:14;14.33;;;5.40;;
22034;SDS011;11181;51.002;4.356;2024-01-27T03:37:41;14.53;;;5.70;;
22034;SDS011;11181;51.002;4.356;2024-01-27T03:40:10;12.83;;;5.33;;
22034;SDS011;11181;51.002;4.356;2024-01-27T03:42:37;13.30;;;5.20;;
22034;SDS011;11181;51.002;4.356;2024-01-27T03:45:04;14.20;;;5.50;;
22034;SDS011;11181;51.002;4.356;2024-01-27T03:47:32;17.47;;;6.53;;
22034;SDS011;11181;51.002;4.356;2024-01-27T03:49:59;11.63;;;4.67;;
22034;SDS011;11181;51.002;4.356;2024-01-27T03:52:27;12.67;;;5.97;;
22034;SDS011;11181;51.002;4.356;2024-01-27T03:54:54;11.57;;;5.10;;
22034;SDS011;11181;51.002;4.356;2024-01-27T03:57:21;12.57;;;5.40;;
22034;SDS011;11181;51.002;4.356;2024-01-27T03:59:48;12.17;;;5.00;;
22034;SDS011;11181;51.002;4.356;2024-01-27T04:02:14;14.93;;;5.23;;
22034;SDS011;11181;51.002;4.356;2024-01-27T04:04:41;12.77;;;5.17;;
22034;SDS011;11181;51.002;4.356;2024-01-27T04:07:08;16.87;;;5.70;;
22034;SDS011;11181;51.002;4.356;2024-01-27T04:09:36;17.13;;;5.93;;
22034;SDS011;11181;51.002;4.356;2024-01-27T04:12:03;15.60;;;7.27;;
22034;SDS011;11181;51.002;4.356;2024-01-27T04:14:30;17.40;;;5.60;;
22034;SDS011;11181;51.002;4.356;2024-01-27T04:16:57;15.43;;;5.77;;
22034;SDS011;11181;51.002;4.356;2024-01-27T04:19:24;12.23;;;4.83;;
22034;SDS011;11181;51.002;4.356;2024-01-27T04:21:51;16.20;;;5.60;;
22034;SDS011;11181;51.002;4.356;2024-01-27T04:24:18;8.53;;;4.50;;
22034;SDS011;11181;51.002;4.356;2024-01-27T04:26:46;20.33;;;6.67;;
22034;SDS011;11181;51.002;4.356;2024-01-27T04:29:14;12.70;;;5.30;;
22034;SDS011;11181;51.002;4.356;2024-01-27T04:31:41;16.40;;;5.63;;
22034;SDS011;11181;51.002;4.356;2024-01-27T04:34:08;14.10;;;5.67;;
22034;SDS011;11181;51.002;4.356;2024-01-27T04:36:35;18.80;;;6.00;;
22034;SDS011;11181;51.002;4.356;2024-01-27T04:39:02;15.07;;;6.00;;
22034;SDS011;11181;51.002;4.356;2024-01-27T04:41:29;12.17;;;5.73;;
22034;SDS011;11181;51.002;4.356;2024-01-27T04:43:57;17.37;;;5.87;;
22034;SDS011;11181;51.002;4.356;2024-01-27T04:46:24;18.53;;;5.67;;
22034;SDS011;11181;51.002;4.356;2024-01-27T04:48:51;14.43;;;5.43;;
22034;SDS011;11181;51.002;4.356;2024-01-27T04:51:18;17.20;;;5.67;;
22034;SDS011;11181;51.002;4.356;2024-01-27T04:53:45;9.77;;;4.73;;
22034;SDS011;11181;51.002;4.356;2024-01-27T04:56:11;13.80;;;4.90;;
22034;SDS011;11181;51.002;4.356;2024-01-27T04:58:38;15.00;;;6.37;;
22034;SDS011;11181;51.002;4.356;2024-01-27T05:01:07;13.53;;;5.60;;
22034;SDS011;11181;51.002;4.356;2024-01-27T05:03:34;13.37;;;5.43;;
22034;SDS011;11181;51.002;4.356;2024-01-27T05:06:01;15.13;;;5.27;;
22034;SDS011;11181;51.002;4.356;2024-01-27T05:08:29;10.87;;;5.13;;
22034;SDS011;11181;51.002;4.356;2024-01-27T05:10:56;13.37;;;5.73;;
22034;SDS011;11181;51.002;4.356;2024-01-27T05:13:23;16.30;;;5.90;;
22034;SDS011;11181;51.002;4.356;2024-01-27T05:15:50;14.57;;;5.80;;
22034;SDS011;11181;51.002;4.356;2024-01-27T05:18:18;11.47;;;5.97;;
22034;SDS011;11181;51.002;4.356;2024-01-27T05:20:45;9.83;;;4.90;;
22034;SDS011;11181;51.002;4.356;2024-01-27T05:23:12;14.03;;;5.03;;
22034;SDS011;11181;51.002;4.356;2024-01-27T05:25:39;12.93;;;5.20;;
22034;SDS011;11181;51.002;4.356;2024-01-27T05:28:05;15.87;;;5.47;;
22034;SDS011;11181;51.002;4.356;2024-01-27T05:30:32;14.17;;;5.30;;
22034;SDS011;11181;51.002;4.356;2024-01-27T05:32:59;12.73;;;5.73;;
22034;SDS011;11181;51.002;4.356;2024-01-27T05:35:27;13.30;;;6.03;;
22034;SDS011;11181;51.002;4.356;2024-01-27T05:37:54;11.43;;;5.40;;
22034;SDS011;11181;51.002;4.356;2024-01-27T05:40:22;9.77;;;5.30;;
22034;SDS011;11181;51.002;4.356;2024-01-27T05:42:49;10.50;;;5.13;;
22034;SDS011;11181;51.002;4.356;2024-01-27T05:45:15;13.33;;;6.83;;
22034;SDS011;11181;51.002;4.356;2024-01-27T05:47:42;12.27;;;5.40;;
22034;SDS011;11181;51.002;4.356;2024-01-27T05:50:09;8.10;;;4.83;;
22034;SDS011;11181;51.002;4.356;2024-01-27T05:52:38;11.77;;;5.67;;
22034;SDS011;11181;51.002;4.356;2024-01-27T05:55:05;14.67;;;5.73;;
22034;SDS011;11181;51.002;4.356;2024-01-27T05:57:33;13.43;;;5.37;;
22034;SDS011;11181;51.002;4.356;2024-01-27T06:00:00;10.87;;;5.60;;
22034;SDS011;11181;51.002;4.356;2024-01-27T06:02:27;16.93;;;5.37;;
22034;SDS011;11181;51.002;4.356;2024-01-27T06:04:54;14.43;;;6.43;;
22034;SDS011;11181;51.002;4.356;2024-01-27T06:07:21;14.50;;;5.87;;
22034;SDS011;11181;51.002;4.356;2024-01-27T06:09:49;13.40;;;5.97;;
22034;SDS011;11181;51.002;4.356;2024-01-27T06:12:16;18.60;;;6.03;;
22034;SDS011;11181;51.002;4.356;2024-01-27T06:14:43;15.67;;;7.60;;
22034;SDS011;11181;51.002;4.356;2024-01-27T06:17:10;9.20;;;5.50;;
22034;SDS011;11181;51.002;4.356;2024-01-27T06:19:37;16.00;;;6.27;;
22034;SDS011;11181;51.002;4.356;2024-01-27T06:22:04;15.43;;;6.40;;
22034;SDS011;11181;51.002;4.356;2024-01-27T06:24:30;16.83;;;6.47;;
22034;SDS011;11181;51.002;4.356;2024-01-27T06:26:59;10.73;;;5.53;;
22034;SDS011;11181;51.002;4.356;2024-01-27T06:29:26;14.97;;;6.47;;
22034;SDS011;11181;51.002;4.356;2024-01-27T06:31:54;18.63;;;6.23;;
22034;SDS011;11181;51.002;4.356;2024-01-27T06:34:21;12.63;;;5.83;;
22034;SDS011;11181;51.002;4.356;2024-01-27T06:36:47;17.43;;;8.20;;
22034;SDS011;11181;51.002;4.356;2024-01-27T06:39:14;12.83;;;5.87;;
22034;SDS011;11181;51.002;4.356;2024-01-27T06:41:43;14.57;;;6.60;;
22034;SDS011;11181;51.002;4.356;2024-01-27T06:44:11;17.47;;;5.90;;
22034;SDS011;11181;51.002;4.356;2024-01-27T06:46:38;11.37;;;6.47;;
22034;SDS011;11181;51.002;4.356;2024-01-27T06:49:05;14.13;;;7.57;;
22034;SDS011;11181;51.002;4.356;2024-01-27T06:51:32;16.30;;;5.87;;
22034;SDS011;11181;51.002;4.356;2024-01-27T06:53:59;12.90;;;6.30;;
22034;SDS011;11181;51.002;4.356;2024-01-27T06:56:26;17.10;;;6.27;;
22034;SDS011;11181;51.002;4.356;2024-01-27T06:58:53;13.57;;;5.87;;
22034;SDS011;11181;51.002;4.356;2024-01-27T07:01:21;14.33;;;5.57;;
22034;SDS011;11181;51.002;4.356;2024-01-27T07:03:48;15.93;;;5.50;;
22034;SDS011;11181;51.002;4.356;2024-01-27T07:06:14;11.57;;;5.87;;
22034;SDS011;11181;51.002;4.356;2024-01-27T07:08:41;15.53;;;5.50;;
22034;SDS011;11181;51.002;4.356;2024-01-27T07:11:08;18.73;;;6.33;;
22034;SDS011;11181;51.002;4.356;2024-01-27T07:13:35;11.73;;;5.87;;
22034;SDS011;11181;51.002;4.356;2024-01-27T07:16:02;13.10;;;6.83;;
22034;SDS011;11181;51.002;4.356;2024-01-27T07:18:31;10.93;;;5.43;;
22034;SDS011;11181;51.002;4.356;2024-01-27T07:21:00;14.37;;;5.90;;
22034;SDS011;11181;51.002;4.356;2024-01-27T07:23:27;16.57;;;6.43;;
22034;SDS011;11181;51.002;4.356;2024-01-27T07:25:54;13.07;;;5.87;;
22034;SDS011;11181;51.002;4.356;2024-01-27T07:28:20;9.73;;;5.67;;
22034;SDS011;11181;51.002;4.356;2024-01-27T07:30:47;14.70;;;6.07;;
22034;SDS011;11181;51.002;4.356;2024-01-27T07:33:14;18.50;;;9.37;;
22034;SDS011;11181;51.002;4.356;2024-01-27T07:35:42;15.13;;;7.50;;
22034;SDS011;11181;51.002;4.356;2024-01-27T07:38:09;13.87;;;7.33;;
22034;SDS011;11181;51.002;4.356;2024-01-27T07:40:36;20.30;;;6.67;;
22034;SDS011;11181;51.002;4.356;2024-01-27T07:43:03;13.83;;;6.20;;
22034;SDS011;11181;51.002;4.356;2024-01-27T07:45:30;13.67;;;5.83;;
22034;SDS011;11181;51.002;4.356;2024-01-27T07:47:58;21.33;;;7.43;;
22034;SDS011;11181;51.002;4.356;2024-01-27T07:50:25;13.23;;;5.90;;
22034;SDS011;11181;51.002;4.356;2024-01-27T07:52:54;13.87;;;5.77;;
22034;SDS011;11181;51.002;4.356;2024-01-27T07:55:20;21.13;;;7.10;;
22034;SDS011;11181;51.002;4.356;2024-01-27T07:57:47;22.47;;;6.33;;
22034;SDS011;11181;51.002;4.356;2024-01-27T08:00:15;14.03;;;5.97;;
22034;SDS011;11181;51.002;4.356;2024-01-27T08:02:42;12.70;;;5.40;;
22034;SDS011;11181;51.002;4.356;2024-01-27T08:05:09;16.77;;;5.60;;
22034;SDS011;11181;51.002;4.356;2024-01-27T08:07:38;14.83;;;6.50;;
22034;SDS011;11181;51.002;4.356;2024-01-27T08:10:07;11.53;;;5.77;;
22034;SDS011;11181;51.002;4.356;2024-01-27T08:12:36;9.77;;;5.23;;
22034;SDS011;11181;51.002;4.356;2024-01-27T08:15:06;14.23;;;6.07;;
22034;SDS011;11181;51.002;4.356;2024-01-27T08:17:33;12.47;;;5.40;;
22034;SDS011;11181;51.002;4.356;2024-01-27T08:20:00;15.83;;;6.30;;
22034;SDS011;11181;51.002;4.356;2024-01-27T08:22:27;13.43;;;5.87;;
22034;SDS011;11181;51.002;4.356;2024-01-27T08:24:54;13.67;;;6.27;;
22034;SDS011;11181;51.002;4.356;2024-01-27T08:27:22;15.17;;;6.30;;
22034;SDS011;11181;51.002;4.356;2024-01-27T08:29:49;10.10;;;4.97;;
22034;SDS011;11181;51.002;4.356;2024-01-27T08:32:16;12.67;;;4.77;;
22034;SDS011;11181;51.002;4.356;2024-01-27T08:34:43;12.70;;;4.90;;
22034;SDS011;11181;51.002;4.356;2024-01-27T08:37:14;11.63;;;4.93;;
22034;SDS011;11181;51.002;4.356;2024-01-27T08:39:42;9.50;;;3.93;;
22034;SDS011;11181;51.002;4.356;2024-01-27T08:42:09;10.97;;;4.93;;
22034;SDS011;11181;51.002;4.356;2024-01-27T08:44:37;16.97;;;4.97;;
22034;SDS011;11181;51.002;4.356;2024-01-27T08:47:04;11.77;;;3.83;;
22034;SDS011;11181;51.002;4.356;2024-01-27T08:49:31;14.10;;;3.90;;
22034;SDS011;11181;51.002;4.356;2024-01-27T08:51:58;9.10;;;3.50;;
22034;SDS011;11181;51.002;4.356;2024-01-27T08:54:25;13.27;;;3.93;;
22034;SDS011;11181;51.002;4.356;2024-01-27T08:56:52;10.90;;;4.50;;
22034;SDS011;11181;51.002;4.356;2024-01-27T08:59:19;11.17;;;4.63;;
22034;SDS011;11181;51.002;4.356;2024-01-27T09:01:47;8.63;;;3.70;;
22034;SDS011;11181;51.002;4.356;2024-01-27T09:04:14;11.43;;;4.73;;
22034;SDS011;11181;51.002;4.356;2024-01-27T09:06:41;11.33;;;3.47;;
22034;SDS011;11181;51.002;4.356;2024-01-27T09:09:08;12.00;;;4.03;;
22034;SDS011;11181;51.002;4.356;2024-01-27T09:11:35;10.13;;;3.77;;
22034;SDS011;11181;51.002;4.356;2024-01-27T09:14:02;8.60;;;4.90;;
22034;SDS011;11181;51.002;4.356;2024-01-27T09:16:32;10.20;;;4.43;;
22034;SDS011;11181;51.002;4.356;2024-01-27T09:19:01;8.40;;;4.20;;
22034;SDS011;11181;51.002;4.356;2024-01-27T09:21:28;14.27;;;5.03;;
22034;SDS011;11181;51.002;4.356;2024-01-27T09:23:55;10.27;;;4.03;;
22034;SDS011;11181;51.002;4.356;2024-01-27T09:26:23;20.30;;;5.13;;
22034;SDS011;11181;51.002;4.356;2024-01-27T09:28:50;10.40;;;3.70;;
22034;SDS011;11181;51.002;4.356;2024-01-27T09:31:19;10.83;;;3.77;;
22034;SDS011;11181;51.002;4.356;2024-01-27T09:33:48;16.23;;;4.07;;
22034;SDS011;11181;51.002;4.356;2024-01-27T09:36:17;16.33;;;3.77;;
22034;SDS011;11181;51.002;4.356;2024-01-27T09:38:44;9.40;;;3.97;;
22034;SDS011;11181;51.002;4.356;2024-01-27T09:41:12;16.97;;;4.33;;
22034;SDS011;11181;51.002;4.356;2024-01-27T09:43:40;17.17;;;4.53;;
22034;SDS011;11181;51.002;4.356;2024-01-27T09:46:09;10.13;;;4.30;;
22034;SDS011;11181;51.002;4.356;2024-01-27T09:48:36;10.03;;;3.50;;
22034;SDS011;11181;51.002;4.356;2024-01-27T09:51:03;11.30;;;3.87;;
22034;SDS011;11181;51.002;4.356;2024-01-27T09:53:32;21.10;;;10.00;;
22034;SDS011;11181;51.002;4.356;2024-01-27T09:55:59;14.07;;;5.73;;
22034;SDS011;11181;51.002;4.356;2024-01-27T09:58:28;14.17;;;4.93;;
22034;SDS011;11181;51.002;4.356;2024-01-27T10:00:56;12.37;;;3.87;;
22034;SDS011;11181;51.002;4.356;2024-01-27T10:03:25;14.70;;;4.20;;
22034;SDS011;11181;51.002;4.356;2024-01-27T10:05:53;13.40;;;3.43;;
22034;SDS011;11181;51.002;4.356;2024-01-27T10:08:21;9.57;;;3.87;;
22034;SDS011;11181;51.002;4.356;2024-01-27T10:10:51;11.23;;;4.00;;
22034;SDS011;11181;51.002;4.356;2024-01-27T10:13:20;15.13;;;4.03;;
22034;SDS011;11181;51.002;4.356;2024-01-27T10:15:58;8.90;;;3.23;;
22034;SDS011;11181;51.002;4.356;2024-01-27T10:18:26;6.00;;;2.73;;
22034;SDS011;11181;51.002;4.356;2024-01-27T10:20:53;6.80;;;3.13;;
22034;SDS011;11181;51.002;4.356;2024-01-27T10:23:20;10.93;;;3.27;;
22034;SDS011;11181;51.002;4.356;2024-01-27T10:25:47;9.00;;;3.00;;
22034;SDS011;11181;51.002;4.356;2024-01-27T10:28:16;10.30;;;4.00;;
22034;SDS011;11181;51.002;4.356;2024-01-27T10:30:43;10.00;;;3.23;;
22034;SDS011;11181;51.002;4.356;2024-01-27T10:33:11;11.40;;;4.73;;
22034;SDS011;11181;51.002;4.356;2024-01-27T10:35:38;10.23;;;3.23;;
22034;SDS011;11181;51.002;4.356;2024-01-27T10:38:05;9.60;;;3.23;;
22034;SDS011;11181;51.002;4.356;2024-01-27T10:40:32;15.23;;;3.63;;
22034;SDS011;11181;51.002;4.356;2024-01-27T10:43:01;13.73;;;3.50;;
22034;SDS011;11181;51.002;4.356;2024-01-27T10:45:33;14.57;;;3.07;;
22034;SDS011;11181;51.002;4.356;2024-01-27T10:48:02;14.10;;;3.93;;
22034;SDS011;11181;51.002;4.356;2024-01-27T10:50:30;11.27;;;3.20;;
22034;SDS011;11181;51.002;4.356;2024-01-27T10:53:00;12.03;;;3.30;;
22034;SDS011;11181;51.002;4.356;2024-01-27T10:55:29;10.70;;;3.03;;
22034;SDS011;11181;51.002;4.356;2024-01-27T10:57:59;5.83;;;2.70;;
22034;SDS011;11181;51.002;4.356;2024-01-27T11:00:27;10.00;;;3.33;;
22034;SDS011;11181;51.002;4.356;2024-01-27T11:02:58;11.17;;;3.07;;
22034;SDS011;11181;51.002;4.356;2024-01-27T11:05:28;10.10;;;3.13;;
22034;SDS011;11181;51.002;4.356;2024-01-27T11:07:55;10.00;;;3.10;;
22034;SDS011;11181;51.002;4.356;2024-01-27T11:10:24;11.93;;;3.20;;
22034;SDS011;11181;51.002;4.356;2024-01-27T11:12:56;7.97;;;3.10;;
22034;SDS011;11181;51.002;4.356;2024-01-27T11:15:23;10.50;;;3.20;;
22034;SDS011;11181;51.002;4.356;2024-01-27T11:17:50;13.10;;;3.70;;
22034;SDS011;11181;51.002;4.356;2024-01-27T11:20:18;10.87;;;3.77;;
22034;SDS011;11181;51.002;4.356;2024-01-27T11:22:45;9.67;;;2.90;;
22034;SDS011;11181;51.002;4.356;2024-01-27T11:25:15;8.20;;;3.13;;
22034;SDS011;11181;51.002;4.356;2024-01-27T11:27:45;16.37;;;3.77;;
22034;SDS011;11181;51.002;4.356;2024-01-27T11:30:24;6.87;;;2.43;;
22034;SDS011;11181;51.002;4.356;2024-01-27T11:32:53;12.87;;;3.37;;
22034;SDS011;11181;51.002;4.356;2024-01-27T11:35:22;9.43;;;3.80;;
22034;SDS011;11181;51.002;4.356;2024-01-27T11:37:49;7.47;;;2.67;;
22034;SDS011;11181;51.002;4.356;2024-01-27T11:40:16;5.50;;;2.70;;
22034;SDS011;11181;51.002;4.356;2024-01-27T11:42:43;6.23;;;2.70;;
22034;SDS011;11181;51.002;4.356;2024-01-27T11:45:20;8.47;;;3.23;;
22034;SDS011;11181;51.002;4.356;2024-01-27T11:47:47;10.00;;;3.47;;
22034;SDS011;11181;51.002;4.356;2024-01-27T11:50:16;8.17;;;2.43;;
22034;SDS011;11181;51.002;4.356;2024-01-27T11:52:45;9.53;;;3.30;;
22034;SDS011;11181;51.002;4.356;2024-01-27T11:55:12;8.70;;;2.73;;
22034;SDS011;11181;51.002;4.356;2024-01-27T11:57:40;5.37;;;2.73;;
22034;SDS011;11181;51.002;4.356;2024-01-27T12:00:07;7.83;;;2.93;;
22034;SDS011;11181;51.002;4.356;2024-01-27T12:02:36;10.43;;;3.07;;
22034;SDS011;11181;51.002;4.356;2024-01-27T12:05:03;8.77;;;2.97;;
22034;SDS011;11181;51.002;4.356;2024-01-27T12:07:31;10.13;;;3.53;;
22034;SDS011;11181;51.002;4.356;2024-01-27T12:09:59;6.03;;;2.43;;
22034;SDS011;11181;51.002;4.356;2024-01-27T12:12:26;9.33;;;2.87;;
22034;SDS011;11181;51.002;4.356;2024-01-27T12:14:53;7.37;;;2.73;;
22034;SDS011;11181;51.002;4.356;2024-01-27T12:17:22;7.17;;;3.00;;
22034;SDS011;11181;51.002;4.356;2024-01-27T12:19:49;10.40;;;3.00;;
22034;SDS011;11181;51.002;4.356;2024-01-27T12:22:20;9.73;;;2.97;;
22034;SDS011;11181;51.002;4.356;2024-01-27T12:24:48;8.87;;;2.67;;
22034;SDS011;11181;51.002;4.356;2024-01-27T12:27:15;8.97;;;3.20;;
22034;SDS011;11181;51.002;4.356;2024-01-27T12:29:43;7.57;;;2.50;;
22034;SDS011;11181;51.002;4.356;2024-01-27T12:32:10;6.40;;;3.23;;
22034;SDS011;11181;51.002;4.356;2024-01-27T12:34:39;10.27;;;2.40;;
22034;SDS011;11181;51.002;4.356;2024-01-27T12:37:07;12.57;;;2.73;;
22034;SDS011;11181;51.002;4.356;2024-01-27T12:39:34;9.70;;;2.80;;
22034;SDS011;11181;51.002;4.356;2024-01-27T12:42:01;8.97;;;3.03;;
22034;SDS011;11181;51.002;4.356;2024-01-27T12:44:29;7.03;;;2.57;;
22034;SDS011;11181;51.002;4.356;2024-01-27T12:46:56;12.23;;;3.27;;
22034;SDS011;11181;51.002;4.356;2024-01-27T12:49:23;7.20;;;2.80;;
22034;SDS011;11181;51.002;4.356;2024-01-27T12:51:50;7.50;;;2.30;;
22034;SDS011;11181;51.002;4.356;2024-01-27T12:54:17;8.07;;;2.80;;
22034;SDS011;11181;51.002;4.356;2024-01-27T12:56:44;9.33;;;2.87;;
22034;SDS011;11181;51.002;4.356;2024-01-27T12:59:11;7.43;;;2.50;;
22034;SDS011;11181;51.002;4.356;2024-01-27T13:01:40;8.97;;;2.90;;
22034;SDS011;11181;51.002;4.356;2024-01-27T13:04:07;8.17;;;2.40;;
22034;SDS011;11181;51.002;4.356;2024-01-27T13:06:34;11.10;;;2.50;;
22034;SDS011;11181;51.002;4.356;2024-01-27T13:09:02;7.10;;;2.27;;
22034;SDS011;11181;51.002;4.356;2024-01-27T13:11:39;10.07;;;3.23;;
22034;SDS011;11181;51.002;4.356;2024-01-27T13:14:51;12.53;;;2.50;;
22034;SDS011;11181;51.002;4.356;2024-01-27T13:20:50;6.97;;;2.17;;
22034;SDS011;11181;51.002;4.356;2024-01-27T13:23:19;13.53;;;3.10;;
22034;SDS011;11181;51.002;4.356;2024-01-27T13:25:46;4.37;;;1.90;;
22034;SDS011;11181;51.002;4.356;2024-01-27T13:28:13;5.47;;;2.20;;
22034;SDS011;11181;51.002;4.356;2024-01-27T13:30:41;6.57;;;2.33;;
22034;SDS011;11181;51.002;4.356;2024-01-27T13:33:08;5.60;;;2.27;;
22034;SDS011;11181;51.002;4.356;2024-01-27T13:35:37;9.50;;;3.20;;
22034;SDS011;11181;51.002;4.356;2024-01-27T13:38:08;5.43;;;2.97;;
22034;SDS011;11181;51.002;4.356;2024-01-27T13:40:34;10.53;;;3.40;;
22034;SDS011;11181;51.002;4.356;2024-01-27T13:43:02;5.57;;;3.00;;
22034;SDS011;11181;51.002;4.356;2024-01-27T13:45:31;6.53;;;2.67;;
22034;SDS011;11181;51.002;4.356;2024-01-27T13:47:58;14.07;;;3.80;;
22034;SDS011;11181;51.002;4.356;2024-01-27T13:50:25;9.40;;;2.63;;
22034;SDS011;11181;51.002;4.356;2024-01-27T13:52:54;8.87;;;3.37;;
22034;SDS011;11181;51.002;4.356;2024-01-27T13:55:23;7.50;;;3.57;;
22034;SDS011;11181;51.002;4.356;2024-01-27T13:57:50;8.80;;;2.23;;
22034;SDS011;11181;51.002;4.356;2024-01-27T14:00:18;10.20;;;3.27;;
22034;SDS011;11181;51.002;4.356;2024-01-27T14:02:49;7.80;;;2.83;;
22034;SDS011;11181;51.002;4.356;2024-01-27T14:05:18;15.47;;;3.80;;
22034;SDS011;11181;51.002;4.356;2024-01-27T14:07:45;8.83;;;3.03;;
22034;SDS011;11181;51.002;4.356;2024-01-27T14:10:16;7.97;;;2.93;;
22034;SDS011;11181;51.002;4.356;2024-01-27T14:12:44;7.97;;;2.23;;
22034;SDS011;11181;51.002;4.356;2024-01-27T14:15:13;8.33;;;2.80;;
22034;SDS011;11181;51.002;4.356;2024-01-27T14:17:42;7.13;;;2.70;;
22034;SDS011;11181;51.002;4.356;2024-01-27T14:20:11;6.73;;;2.47;;
22034;SDS011;11181;51.002;4.356;2024-01-27T14:22:41;6.60;;;3.17;;
22034;SDS011;11181;51.002;4.356;2024-01-27T14:25:10;8.37;;;3.00;;
22034;SDS011;11181;51.002;4.356;2024-01-27T14:27:38;6.20;;;2.90;;
22034;SDS011;11181;51.002;4.356;2024-01-27T14:30:06;3.80;;;2.33;;
22034;SDS011;11181;51.002;4.356;2024-01-27T14:32:35;9.57;;;2.87;;
22034;SDS011;11181;51.002;4.356;2024-01-27T14:35:02;8.80;;;2.77;;
22034;SDS011;11181;51.002;4.356;2024-01-27T14:37:31;8.80;;;3.00;;
22034;SDS011;11181;51.002;4.356;2024-01-27T14:39:58;6.90;;;3.23;;
22034;SDS011;11181;51.002;4.356;2024-01-27T14:42:26;9.07;;;3.23;;
22034;SDS011;11181;51.002;4.356;2024-01-27T14:44:56;8.40;;;3.07;;